sensor_id;sensor_type;location;lat;lon;timestamp;P1;durP1;ratioP1;P2;durP2;ratioP2
1024;SDS011;501;48.214;11.350;2022-09-01T00:00:24;24.37;;;21.60;;
1024;SDS011;501;48.214;11.350;2022-09-01T00:02:53;23.63;;;20.90;;
1024;SDS011;501;48.214;11.350;2022-09-01T00:05:20;22.67;;;20.23;;
1024;SDS011;501;48.214;11.350;2022-09-01T00:07:46;22.97;;;19.37;;
1024;SDS011;501;48.214;11.350;2022-09-01T00:10:13;23.37;;;20.87;;
1024;SDS011;501;48.214;11.350;2022-09-01T00:12:38;25.90;;;20.87;;
1024;SDS011;501;48.214;11.350;2022-09-01T00:15:05;23.30;;;20.87;;
1024;SDS011;501;48.214;11.350;2022-09-01T00:17:32;22.30;;;20.10;;
1024;SDS011;501;48.214;11.350;2022-09-01T00:19:58;23.37;;;19.67;;
1024;SDS011;501;48.214;11.350;2022-09-01T00:22:24;21.87;;;19.57;;
1024;SDS011;501;48.214;11.350;2022-09-01T00:24:49;21.97;;;19.53;;
1024;SDS011;501;48.214;11.350;2022-09-01T00:27:15;24.23;;;20.47;;
1024;SDS011;501;48.214;11.350;2022-09-01T00:29:41;25.10;;;20.00;;
1024;SDS011;501;48.214;11.350;2022-09-01T00:32:07;23.57;;;20.73;;
1024;SDS011;501;48.214;11.350;2022-09-01T00:34:33;23.13;;;20.70;;
1024;SDS011;501;48.214;11.350;2022-09-01T00:36:59;27.17;;;21.90;;
1024;SDS011;501;48.214;11.350;2022-09-01T00:39:24;23.57;;;18.90;;
1024;SDS011;501;48.214;11.350;2022-09-01T00:41:50;24.37;;;21.17;;
1024;SDS011;501;48.214;11.350;2022-09-01T00:44:17;22.97;;;20.40;;
1024;SDS011;501;48.214;11.350;2022-09-01T00:46:48;25.40;;;21.53;;
1024;SDS011;501;48.214;11.350;2022-09-01T00:49:19;25.97;;;22.17;;
1024;SDS011;501;48.214;11.350;2022-09-01T00:52:07;24.03;;;21.43;;
1024;SDS011;501;48.214;11.350;2022-09-01T00:54:39;23.63;;;21.10;;
1024;SDS011;501;48.214;11.350;2022-09-01T00:57:09;22.50;;;20.20;;
1024;SDS011;501;48.214;11.350;2022-09-01T00:59:38;24.20;;;21.70;;
1024;SDS011;501;48.214;11.350;2022-09-01T01:02:09;24.63;;;21.10;;
1024;SDS011;501;48.214;11.350;2022-09-01T01:04:35;23.80;;;20.20;;
1024;SDS011;501;48.214;11.350;2022-09-01T01:07:01;24.00;;;21.37;;
1024;SDS011;501;48.214;11.350;2022-09-01T01:09:29;28.10;;;21.33;;
1024;SDS011;501;48.214;11.350;2022-09-01T01:11:58;27.50;;;22.10;;
1024;SDS011;501;48.214;11.350;2022-09-01T01:14:27;23.80;;;21.30;;
1024;SDS011;501;48.214;11.350;2022-09-01T01:16:55;27.13;;;21.47;;
1024;SDS011;501;48.214;11.350;2022-09-01T01:25:26;28.93;;;23.87;;
1024;SDS011;501;48.214;11.350;2022-09-01T01:28:07;24.37;;;21.73;;
1024;SDS011;501;48.214;11.350;2022-09-01T01:31:01;27.17;;;23.43;;
1024;SDS011;501;48.214;11.350;2022-09-01T01:33:34;32.93;;;24.27;;
1024;SDS011;501;48.214;11.350;2022-09-01T01:36:06;27.93;;;23.17;;
1024;SDS011;501;48.214;11.350;2022-09-01T01:38:34;29.63;;;25.07;;
1024;SDS011;501;48.214;11.350;2022-09-01T01:41:01;36.50;;;25.23;;
1024;SDS011;501;48.214;11.350;2022-09-01T01:43:27;28.47;;;24.67;;
1024;SDS011;501;48.214;11.350;2022-09-01T01:45:54;30.07;;;25.60;;
1024;SDS011;501;48.214;11.350;2022-09-01T01:48:26;30.97;;;26.77;;
1024;SDS011;501;48.214;11.350;2022-09-01T01:50:53;32.20;;;26.60;;
1024;SDS011;501;48.214;11.350;2022-09-01T01:53:20;31.10;;;26.70;;
1024;SDS011;501;48.214;11.350;2022-09-01T01:55:46;31.53;;;26.47;;
1024;SDS011;501;48.214;11.350;2022-09-01T01:58:16;30.20;;;24.43;;
1024;SDS011;501;48.214;11.350;2022-09-01T02:00:43;33.60;;;26.07;;
1024;SDS011;501;48.214;11.350;2022-09-01T02:03:11;29.63;;;26.17;;
1024;SDS011;501;48.214;11.350;2022-09-01T02:05:41;34.70;;;27.57;;
1024;SDS011;501;48.214;11.350;2022-09-01T02:08:08;29.50;;;25.40;;
1024;SDS011;501;48.214;11.350;2022-09-01T02:10:37;30.97;;;27.27;;
1024;SDS011;501;48.214;11.350;2022-09-01T02:13:08;33.33;;;27.43;;
1024;SDS011;501;48.214;11.350;2022-09-01T02:15:41;33.00;;;27.00;;
1024;SDS011;501;48.214;11.350;2022-09-01T02:18:15;35.67;;;27.77;;
1024;SDS011;501;48.214;11.350;2022-09-01T02:20:46;28.73;;;25.63;;
1024;SDS011;501;48.214;11.350;2022-09-01T02:23:13;33.70;;;27.13;;
1024;SDS011;501;48.214;11.350;2022-09-01T02:25:42;35.47;;;26.73;;
1024;SDS011;501;48.214;11.350;2022-09-01T02:28:13;31.60;;;26.33;;
1024;SDS011;501;48.214;11.350;2022-09-01T02:30:48;30.17;;;26.10;;
1024;SDS011;501;48.214;11.350;2022-09-01T02:33:23;31.57;;;25.40;;
1024;SDS011;501;48.214;11.350;2022-09-01T02:35:51;30.70;;;25.73;;
1024;SDS011;501;48.214;11.350;2022-09-01T02:38:21;36.00;;;26.37;;
1024;SDS011;501;48.214;11.350;2022-09-01T02:40:53;27.03;;;23.73;;
1024;SDS011;501;48.214;11.350;2022-09-01T02:43:20;31.07;;;25.90;;
1024;SDS011;501;48.214;11.350;2022-09-01T02:45:47;31.13;;;25.37;;
1024;SDS011;501;48.214;11.350;2022-09-01T02:48:18;31.03;;;26.63;;
1024;SDS011;501;48.214;11.350;2022-09-01T02:50:46;29.73;;;24.83;;
1024;SDS011;501;48.214;11.350;2022-09-01T02:53:13;30.83;;;26.43;;
1024;SDS011;501;48.214;11.350;2022-09-01T02:55:39;28.97;;;25.30;;
1024;SDS011;501;48.214;11.350;2022-09-01T02:58:06;27.97;;;24.27;;
1024;SDS011;501;48.214;11.350;2022-09-01T03:00:35;31.67;;;26.03;;
1024;SDS011;501;48.214;11.350;2022-09-01T03:03:04;28.60;;;24.40;;
1024;SDS011;501;48.214;11.350;2022-09-01T03:05:31;29.80;;;24.67;;
1024;SDS011;501;48.214;11.350;2022-09-01T03:08:00;30.40;;;25.37;;
1024;SDS011;501;48.214;11.350;2022-09-01T03:10:29;29.13;;;25.10;;
1024;SDS011;501;48.214;11.350;2022-09-01T03:13:04;30.30;;;25.10;;
1024;SDS011;501;48.214;11.350;2022-09-01T03:15:32;32.07;;;25.07;;
1024;SDS011;501;48.214;11.350;2022-09-01T03:17:58;36.67;;;26.37;;
1024;SDS011;501;48.214;11.350;2022-09-01T03:20:25;30.40;;;25.47;;
1024;SDS011;501;48.214;11.350;2022-09-01T03:22:54;30.97;;;27.13;;
1024;SDS011;501;48.214;11.350;2022-09-01T03:25:21;31.00;;;25.07;;
1024;SDS011;501;48.214;11.350;2022-09-01T03:27:49;31.73;;;26.57;;
1024;SDS011;501;48.214;11.350;2022-09-01T03:30:17;27.63;;;24.67;;
1024;SDS011;501;48.214;11.350;2022-09-01T03:32:44;28.90;;;25.13;;
1024;SDS011;501;48.214;11.350;2022-09-01T03:35:11;28.47;;;24.33;;
1024;SDS011;501;48.214;11.350;2022-09-01T03:37:37;28.00;;;23.03;;
1024;SDS011;501;48.214;11.350;2022-09-01T03:40:04;31.73;;;25.77;;
1024;SDS011;501;48.214;11.350;2022-09-01T03:42:33;30.40;;;25.03;;
1024;SDS011;501;48.214;11.350;2022-09-01T03:44:59;29.60;;;25.50;;
1024;SDS011;501;48.214;11.350;2022-09-01T03:47:37;31.27;;;25.80;;
1024;SDS011;501;48.214;11.350;2022-09-01T03:50:05;33.37;;;26.43;;
1024;SDS011;501;48.214;11.350;2022-09-01T03:52:46;29.10;;;25.10;;
1024;SDS011;501;48.214;11.350;2022-09-01T03:55:13;28.43;;;24.27;;
1024;SDS011;501;48.214;11.350;2022-09-01T03:57:47;33.47;;;25.83;;
1024;SDS011;501;48.214;11.350;2022-09-01T04:00:17;33.97;;;27.10;;
1024;SDS011;501;48.214;11.350;2022-09-01T04:02:45;34.03;;;26.90;;
1024;SDS011;501;48.214;11.350;2022-09-01T04:05:14;34.33;;;26.07;;
1024;SDS011;501;48.214;11.350;2022-09-01T04:07:42;32.97;;;25.83;;
1024;SDS011;501;48.214;11.350;2022-09-01T04:10:10;29.73;;;24.00;;
1024;SDS011;501;48.214;11.350;2022-09-01T04:12:36;31.90;;;26.83;;
1024;SDS011;501;48.214;11.350;2022-09-01T04:15:03;30.63;;;25.43;;
1024;SDS011;501;48.214;11.350;2022-09-01T04:17:30;32.20;;;26.00;;
1024;SDS011;501;48.214;11.350;2022-09-01T04:20:14;33.60;;;27.47;;
1024;SDS011;501;48.214;11.350;2022-09-01T04:22:44;33.40;;;24.93;;
1024;SDS011;501;48.214;11.350;2022-09-01T04:25:11;30.13;;;26.70;;
1024;SDS011;501;48.214;11.350;2022-09-01T04:27:37;32.83;;;26.33;;
1024;SDS011;501;48.214;11.350;2022-09-01T04:30:04;31.73;;;26.80;;
1024;SDS011;501;48.214;11.350;2022-09-01T04:32:34;29.27;;;23.80;;
1024;SDS011;501;48.214;11.350;2022-09-01T04:35:02;31.60;;;25.70;;
1024;SDS011;501;48.214;11.350;2022-09-01T04:37:29;31.37;;;26.40;;
1024;SDS011;501;48.214;11.350;2022-09-01T04:39:55;35.73;;;26.90;;
1024;SDS011;501;48.214;11.350;2022-09-01T04:42:22;31.00;;;26.23;;
1024;SDS011;501;48.214;11.350;2022-09-01T04:44:50;32.93;;;27.40;;
1024;SDS011;501;48.214;11.350;2022-09-01T04:47:17;35.60;;;26.60;;
1024;SDS011;501;48.214;11.350;2022-09-01T04:49:44;35.73;;;27.20;;
1024;SDS011;501;48.214;11.350;2022-09-01T04:52:12;32.80;;;27.13;;
1024;SDS011;501;48.214;11.350;2022-09-01T04:54:38;36.97;;;28.27;;
1024;SDS011;501;48.214;11.350;2022-09-01T04:57:04;35.70;;;28.00;;
1024;SDS011;501;48.214;11.350;2022-09-01T04:59:31;30.00;;;24.90;;
1024;SDS011;501;48.214;11.350;2022-09-01T05:01:57;32.97;;;26.87;;
1024;SDS011;501;48.214;11.350;2022-09-01T05:04:25;34.10;;;25.63;;
1024;SDS011;501;48.214;11.350;2022-09-01T05:06:56;33.17;;;26.10;;
1024;SDS011;501;48.214;11.350;2022-09-01T05:09:26;34.30;;;27.60;;
1024;SDS011;501;48.214;11.350;2022-09-01T05:11:53;32.80;;;24.83;;
1024;SDS011;501;48.214;11.350;2022-09-01T05:14:20;31.93;;;25.30;;
1024;SDS011;501;48.214;11.350;2022-09-01T05:16:47;38.73;;;28.00;;
1024;SDS011;501;48.214;11.350;2022-09-01T05:19:14;29.50;;;25.20;;
1024;SDS011;501;48.214;11.350;2022-09-01T05:21:41;30.97;;;26.20;;
1024;SDS011;501;48.214;11.350;2022-09-01T05:24:12;35.10;;;25.90;;
1024;SDS011;501;48.214;11.350;2022-09-01T05:26:40;34.67;;;27.13;;
1024;SDS011;501;48.214;11.350;2022-09-01T05:29:08;33.00;;;24.90;;
1024;SDS011;501;48.214;11.350;2022-09-01T05:31:42;30.97;;;25.63;;
1024;SDS011;501;48.214;11.350;2022-09-01T05:34:09;30.33;;;25.43;;
1024;SDS011;501;48.214;11.350;2022-09-01T05:36:37;31.33;;;25.20;;
1024;SDS011;501;48.214;11.350;2022-09-01T05:39:06;32.20;;;26.07;;
1024;SDS011;501;48.214;11.350;2022-09-01T05:41:35;30.53;;;24.80;;
1024;SDS011;501;48.214;11.350;2022-09-01T05:44:01;27.60;;;24.60;;
1024;SDS011;501;48.214;11.350;2022-09-01T05:46:31;28.83;;;24.93;;
1024;SDS011;501;48.214;11.350;2022-09-01T05:48:58;28.20;;;24.60;;
1024;SDS011;501;48.214;11.350;2022-09-01T05:51:24;28.20;;;24.43;;
1024;SDS011;501;48.214;11.350;2022-09-01T05:53:52;32.73;;;25.90;;
1024;SDS011;501;48.214;11.350;2022-09-01T05:56:23;27.97;;;24.13;;
1024;SDS011;501;48.214;11.350;2022-09-01T05:58:50;30.17;;;24.37;;
1024;SDS011;501;48.214;11.350;2022-09-01T06:01:18;28.20;;;23.47;;
1024;SDS011;501;48.214;11.350;2022-09-01T06:03:47;30.33;;;24.53;;
1024;SDS011;501;48.214;11.350;2022-09-01T06:06:14;32.57;;;24.27;;
1024;SDS011;501;48.214;11.350;2022-09-01T06:08:40;27.60;;;23.97;;
1024;SDS011;501;48.214;11.350;2022-09-01T06:11:07;28.87;;;23.60;;
1024;SDS011;501;48.214;11.350;2022-09-01T06:13:39;23.87;;;21.30;;
1024;SDS011;501;48.214;11.350;2022-09-01T06:16:06;23.83;;;21.27;;
1024;SDS011;501;48.214;11.350;2022-09-01T06:18:33;22.93;;;20.63;;
1024;SDS011;501;48.214;11.350;2022-09-01T06:21:01;24.90;;;21.27;;
1024;SDS011;501;48.214;11.350;2022-09-01T06:23:28;22.60;;;20.00;;
1024;SDS011;501;48.214;11.350;2022-09-01T06:25:55;22.43;;;19.97;;
1024;SDS011;501;48.214;11.350;2022-09-01T06:28:21;22.63;;;20.10;;
1024;SDS011;501;48.214;11.350;2022-09-01T06:30:47;22.27;;;19.87;;
1024;SDS011;501;48.214;11.350;2022-09-01T06:33:15;23.07;;;20.67;;
1024;SDS011;501;48.214;11.350;2022-09-01T06:35:41;20.63;;;18.53;;
1024;SDS011;501;48.214;11.350;2022-09-01T06:38:09;24.27;;;20.07;;
1024;SDS011;501;48.214;11.350;2022-09-01T06:40:37;21.47;;;19.20;;
1024;SDS011;501;48.214;11.350;2022-09-01T06:43:05;20.77;;;17.93;;
1024;SDS011;501;48.214;11.350;2022-09-01T06:45:33;20.17;;;18.17;;
1024;SDS011;501;48.214;11.350;2022-09-01T06:48:04;22.57;;;17.00;;
1024;SDS011;501;48.214;11.350;2022-09-01T06:50:30;21.50;;;18.60;;
1024;SDS011;501;48.214;11.350;2022-09-01T06:52:56;19.37;;;16.17;;
1024;SDS011;501;48.214;11.350;2022-09-01T06:55:32;19.00;;;17.10;;
1024;SDS011;501;48.214;11.350;2022-09-01T06:58:01;17.90;;;16.00;;
1024;SDS011;501;48.214;11.350;2022-09-01T07:00:30;16.77;;;15.17;;
1024;SDS011;501;48.214;11.350;2022-09-01T07:02:56;18.93;;;16.90;;
1024;SDS011;501;48.214;11.350;2022-09-01T07:05:23;18.60;;;15.30;;
1024;SDS011;501;48.214;11.350;2022-09-01T07:07:53;17.13;;;15.40;;
1024;SDS011;501;48.214;11.350;2022-09-01T07:10:23;17.03;;;15.33;;
1024;SDS011;501;48.214;11.350;2022-09-01T07:12:51;16.63;;;14.83;;
1024;SDS011;501;48.214;11.350;2022-09-01T07:15:20;15.60;;;13.87;;
1024;SDS011;501;48.214;11.350;2022-09-01T07:17:47;15.83;;;14.30;;
1024;SDS011;501;48.214;11.350;2022-09-01T07:20:16;15.73;;;14.03;;
1024;SDS011;501;48.214;11.350;2022-09-01T07:22:45;15.90;;;14.30;;
1024;SDS011;501;48.214;11.350;2022-09-01T07:25:11;14.83;;;13.30;;
1024;SDS011;501;48.214;11.350;2022-09-01T07:27:38;18.20;;;13.47;;
1024;SDS011;501;48.214;11.350;2022-09-01T07:30:05;16.20;;;14.27;;
1024;SDS011;501;48.214;11.350;2022-09-01T07:32:33;13.77;;;12.37;;
1024;SDS011;501;48.214;11.350;2022-09-01T07:35:00;15.00;;;13.50;;
1024;SDS011;501;48.214;11.350;2022-09-01T07:37:32;15.60;;;14.10;;
1024;SDS011;501;48.214;11.350;2022-09-01T07:40:02;16.40;;;13.43;;
1024;SDS011;501;48.214;11.350;2022-09-01T07:42:32;14.00;;;12.70;;
1024;SDS011;501;48.214;11.350;2022-09-01T07:44:58;17.40;;;13.93;;
1024;SDS011;501;48.214;11.350;2022-09-01T07:47:24;16.93;;;14.10;;
1024;SDS011;501;48.214;11.350;2022-09-01T07:49:53;15.17;;;13.50;;
1024;SDS011;501;48.214;11.350;2022-09-01T07:52:19;17.30;;;15.40;;
1024;SDS011;501;48.214;11.350;2022-09-01T07:54:45;15.60;;;14.00;;
1024;SDS011;501;48.214;11.350;2022-09-01T07:57:11;16.47;;;14.90;;
1024;SDS011;501;48.214;11.350;2022-09-01T07:59:36;14.97;;;13.47;;
1024;SDS011;501;48.214;11.350;2022-09-01T08:02:03;15.37;;;13.87;;
1024;SDS011;501;48.214;11.350;2022-09-01T08:04:29;15.13;;;13.53;;
1024;SDS011;501;48.214;11.350;2022-09-01T08:06:55;15.17;;;13.67;;
1024;SDS011;501;48.214;11.350;2022-09-01T08:09:21;14.77;;;13.37;;
1024;SDS011;501;48.214;11.350;2022-09-01T08:11:47;15.63;;;13.70;;
1024;SDS011;501;48.214;11.350;2022-09-01T08:14:13;15.03;;;13.60;;
1024;SDS011;501;48.214;11.350;2022-09-01T08:16:39;15.67;;;14.17;;
1024;SDS011;501;48.214;11.350;2022-09-01T08:19:04;15.10;;;13.70;;
1024;SDS011;501;48.214;11.350;2022-09-01T08:21:30;15.60;;;14.10;;
1024;SDS011;501;48.214;11.350;2022-09-01T08:23:56;14.37;;;13.07;;
1024;SDS011;501;48.214;11.350;2022-09-01T08:26:23;13.93;;;12.63;;
1024;SDS011;501;48.214;11.350;2022-09-01T08:28:50;13.20;;;12.00;;
1024;SDS011;501;48.214;11.350;2022-09-01T08:31:17;11.63;;;10.53;;
1024;SDS011;501;48.214;11.350;2022-09-01T08:33:44;13.10;;;11.87;;
1024;SDS011;501;48.214;11.350;2022-09-01T08:36:12;12.63;;;11.43;;
1024;SDS011;501;48.214;11.350;2022-09-01T08:38:39;12.47;;;11.30;;
1024;SDS011;501;48.214;11.350;2022-09-01T08:41:12;12.33;;;11.20;;
1024;SDS011;501;48.214;11.350;2022-09-01T08:43:48;12.57;;;11.13;;
1024;SDS011;501;48.214;11.350;2022-09-01T08:46:36;12.13;;;10.93;;
1024;SDS011;501;48.214;11.350;2022-09-01T08:49:11;11.13;;;10.07;;
1024;SDS011;501;48.214;11.350;2022-09-01T08:51:50;11.70;;;10.50;;
1024;SDS011;501;48.214;11.350;2022-09-01T08:57:00;12.00;;;10.90;;
1024;SDS011;501;48.214;11.350;2022-09-01T08:59:29;12.37;;;11.27;;
1024;SDS011;501;48.214;11.350;2022-09-01T09:09:54;14.03;;;12.63;;
1024;SDS011;501;48.214;11.350;2022-09-01T09:15:39;12.97;;;11.77;;
1024;SDS011;501;48.214;11.350;2022-09-01T09:18:27;14.73;;;11.50;;
1024;SDS011;501;48.214;11.350;2022-09-01T09:21:04;13.30;;;11.90;;
1024;SDS011;501;48.214;11.350;2022-09-01T09:23:44;13.30;;;11.73;;
1024;SDS011;501;48.214;11.350;2022-09-01T09:26:12;16.33;;;12.00;;
1024;SDS011;501;48.214;11.350;2022-09-01T09:28:38;12.60;;;11.43;;
1024;SDS011;501;48.214;11.350;2022-09-01T09:33:49;11.67;;;10.50;;
1024;SDS011;501;48.214;11.350;2022-09-01T09:36:22;12.97;;;11.50;;
1024;SDS011;501;48.214;11.350;2022-09-01T09:39:16;12.03;;;10.93;;
1024;SDS011;501;48.214;11.350;2022-09-01T09:41:42;11.37;;;10.37;;
1024;SDS011;501;48.214;11.350;2022-09-01T09:44:26;10.40;;;9.43;;
1024;SDS011;501;48.214;11.350;2022-09-01T09:46:55;9.87;;;8.97;;
1024;SDS011;501;48.214;11.350;2022-09-01T09:49:31;8.97;;;8.13;;
1024;SDS011;501;48.214;11.350;2022-09-01T09:54:28;7.77;;;6.97;;
1024;SDS011;501;48.214;11.350;2022-09-01T09:59:35;7.57;;;6.90;;
1024;SDS011;501;48.214;11.350;2022-09-01T10:04:45;8.13;;;7.47;;
1024;SDS011;501;48.214;11.350;2022-09-01T10:07:24;8.97;;;8.10;;
1024;SDS011;501;48.214;11.350;2022-09-01T10:09:56;8.83;;;8.10;;
1024;SDS011;501;48.214;11.350;2022-09-01T10:12:24;8.37;;;7.50;;
1024;SDS011;501;48.214;11.350;2022-09-01T10:14:53;9.27;;;8.37;;
1024;SDS011;501;48.214;11.350;2022-09-01T10:17:29;9.47;;;8.17;;
1024;SDS011;501;48.214;11.350;2022-09-01T10:20:08;8.60;;;7.77;;
1024;SDS011;501;48.214;11.350;2022-09-01T10:22:41;8.37;;;7.67;;
1024;SDS011;501;48.214;11.350;2022-09-01T10:25:08;8.90;;;8.10;;
1024;SDS011;501;48.214;11.350;2022-09-01T10:27:40;8.37;;;7.57;;
1024;SDS011;501;48.214;11.350;2022-09-01T10:30:11;8.00;;;7.30;;
1024;SDS011;501;48.214;11.350;2022-09-01T10:32:48;9.00;;;8.20;;
1024;SDS011;501;48.214;11.350;2022-09-01T10:35:27;7.47;;;6.70;;
1024;SDS011;501;48.214;11.350;2022-09-01T10:38:01;7.43;;;6.77;;
1024;SDS011;501;48.214;11.350;2022-09-01T10:45:57;5.77;;;5.20;;
1024;SDS011;501;48.214;11.350;2022-09-01T10:48:29;4.77;;;4.37;;
1024;SDS011;501;48.214;11.350;2022-09-01T10:53:39;5.20;;;4.70;;
1024;SDS011;501;48.214;11.350;2022-09-01T10:58:43;5.23;;;4.83;;
1024;SDS011;501;48.214;11.350;2022-09-01T11:04:13;4.13;;;3.83;;
1024;SDS011;501;48.214;11.350;2022-09-01T11:09:38;4.30;;;3.63;;
1024;SDS011;501;48.214;11.350;2022-09-01T11:17:29;3.90;;;3.60;;
1024;SDS011;501;48.214;11.350;2022-09-01T11:20:07;6.03;;;3.73;;
1024;SDS011;501;48.214;11.350;2022-09-01T11:22:58;3.60;;;3.40;;
1024;SDS011;501;48.214;11.350;2022-09-01T11:25:46;3.50;;;3.20;;
1024;SDS011;501;48.214;11.350;2022-09-01T11:41:59;3.60;;;3.30;;
1024;SDS011;501;48.214;11.350;2022-09-01T11:47:17;3.53;;;3.10;;
1024;SDS011;501;48.214;11.350;2022-09-01T11:49:51;5.97;;;3.33;;
1024;SDS011;501;48.214;11.350;2022-09-01T11:52:22;4.30;;;3.50;;
1024;SDS011;501;48.214;11.350;2022-09-01T11:54:50;3.33;;;3.10;;
1024;SDS011;501;48.214;11.350;2022-09-01T11:59:49;3.60;;;3.30;;
1024;SDS011;501;48.214;11.350;2022-09-01T12:02:26;4.40;;;3.57;;
1024;SDS011;501;48.214;11.350;2022-09-01T12:04:57;3.40;;;3.10;;
1024;SDS011;501;48.214;11.350;2022-09-01T12:07:37;3.53;;;3.30;;
1024;SDS011;501;48.214;11.350;2022-09-01T12:10:20;3.90;;;3.60;;
1024;SDS011;501;48.214;11.350;2022-09-01T12:15:38;3.90;;;3.37;;
1024;SDS011;501;48.214;11.350;2022-09-01T12:18:23;3.70;;;3.03;;
1024;SDS011;501;48.214;11.350;2022-09-01T12:21:00;3.87;;;3.10;;
1024;SDS011;501;48.214;11.350;2022-09-01T12:25:58;2.80;;;2.60;;
1024;SDS011;501;48.214;11.350;2022-09-01T12:28:28;3.57;;;3.27;;
1024;SDS011;501;48.214;11.350;2022-09-01T12:30:55;3.27;;;3.00;;
1024;SDS011;501;48.214;11.350;2022-09-01T12:33:26;4.00;;;3.70;;
1024;SDS011;501;48.214;11.350;2022-09-01T12:36:12;3.87;;;3.47;;
1024;SDS011;501;48.214;11.350;2022-09-01T12:38:46;3.53;;;3.23;;
1024;SDS011;501;48.214;11.350;2022-09-01T12:47:00;8.70;;;4.80;;
1024;SDS011;501;48.214;11.350;2022-09-01T12:49:38;5.80;;;4.30;;
1024;SDS011;501;48.214;11.350;2022-09-01T12:52:09;4.63;;;4.23;;
1024;SDS011;501;48.214;11.350;2022-09-01T12:55:13;4.07;;;3.77;;
1024;SDS011;501;48.214;11.350;2022-09-01T12:57:45;4.93;;;3.80;;
1024;SDS011;501;48.214;11.350;2022-09-01T13:00:17;5.70;;;3.73;;
1024;SDS011;501;48.214;11.350;2022-09-01T13:07:53;3.87;;;3.57;;
1024;SDS011;501;48.214;11.350;2022-09-01T13:10:20;3.90;;;3.60;;
1024;SDS011;501;48.214;11.350;2022-09-01T13:12:49;3.63;;;3.40;;
1024;SDS011;501;48.214;11.350;2022-09-01T13:15:15;3.83;;;3.57;;
1024;SDS011;501;48.214;11.350;2022-09-01T13:17:42;3.57;;;3.27;;
1024;SDS011;501;48.214;11.350;2022-09-01T13:20:07;3.80;;;3.13;;
1024;SDS011;501;48.214;11.350;2022-09-01T13:22:35;3.27;;;3.07;;
1024;SDS011;501;48.214;11.350;2022-09-01T13:25:02;2.80;;;2.60;;
1024;SDS011;501;48.214;11.350;2022-09-01T13:27:28;3.30;;;3.10;;
1024;SDS011;501;48.214;11.350;2022-09-01T13:29:54;3.10;;;2.90;;
1024;SDS011;501;48.214;11.350;2022-09-01T13:32:20;3.50;;;3.20;;
1024;SDS011;501;48.214;11.350;2022-09-01T13:34:47;3.50;;;3.13;;
1024;SDS011;501;48.214;11.350;2022-09-01T13:37:15;3.63;;;3.10;;
1024;SDS011;501;48.214;11.350;2022-09-01T13:39:41;3.60;;;3.40;;
1024;SDS011;501;48.214;11.350;2022-09-01T13:42:06;3.77;;;3.23;;
1024;SDS011;501;48.214;11.350;2022-09-01T13:44:32;3.47;;;3.23;;
1024;SDS011;501;48.214;11.350;2022-09-01T13:46:58;3.60;;;3.30;;
1024;SDS011;501;48.214;11.350;2022-09-01T13:49:24;4.03;;;3.63;;
1024;SDS011;501;48.214;11.350;2022-09-01T13:51:50;6.23;;;3.50;;
1024;SDS011;501;48.214;11.350;2022-09-01T13:54:16;3.70;;;3.40;;
1024;SDS011;501;48.214;11.350;2022-09-01T13:56:42;2.77;;;2.57;;
1024;SDS011;501;48.214;11.350;2022-09-01T13:59:07;3.20;;;2.90;;
1024;SDS011;501;48.214;11.350;2022-09-01T14:01:33;3.60;;;2.90;;
1024;SDS011;501;48.214;11.350;2022-09-01T14:03:59;2.93;;;2.73;;
1024;SDS011;501;48.214;11.350;2022-09-01T14:06:25;2.67;;;2.43;;
1024;SDS011;501;48.214;11.350;2022-09-01T14:08:51;2.80;;;2.50;;
1024;SDS011;501;48.214;11.350;2022-09-01T14:11:17;2.53;;;2.33;;
1024;SDS011;501;48.214;11.350;2022-09-01T14:13:44;2.80;;;2.33;;
1024;SDS011;501;48.214;11.350;2022-09-01T14:16:11;2.73;;;2.53;;
1024;SDS011;501;48.214;11.350;2022-09-01T14:18:37;2.67;;;2.50;;
1024;SDS011;501;48.214;11.350;2022-09-01T14:21:03;2.43;;;2.33;;
1024;SDS011;501;48.214;11.350;2022-09-01T14:23:29;3.03;;;2.53;;
1024;SDS011;501;48.214;11.350;2022-09-01T14:25:55;3.20;;;2.90;;
1024;SDS011;501;48.214;11.350;2022-09-01T14:28:22;3.30;;;2.60;;
1024;SDS011;501;48.214;11.350;2022-09-01T14:30:49;3.00;;;2.43;;
1024;SDS011;501;48.214;11.350;2022-09-01T14:33:15;2.30;;;2.20;;
1024;SDS011;501;48.214;11.350;2022-09-01T14:35:43;2.60;;;2.40;;
1024;SDS011;501;48.214;11.350;2022-09-01T14:38:10;2.33;;;2.13;;
1024;SDS011;501;48.214;11.350;2022-09-01T14:40:38;2.50;;;2.00;;
1024;SDS011;501;48.214;11.350;2022-09-01T14:43:06;2.80;;;2.60;;
1024;SDS011;501;48.214;11.350;2022-09-01T14:45:38;2.43;;;2.23;;
1024;SDS011;501;48.214;11.350;2022-09-01T14:48:06;2.03;;;1.93;;
1024;SDS011;501;48.214;11.350;2022-09-01T14:50:33;2.47;;;2.20;;
1024;SDS011;501;48.214;11.350;2022-09-01T14:53:04;2.43;;;2.23;;
1024;SDS011;501;48.214;11.350;2022-09-01T14:55:29;5.63;;;2.10;;
1024;SDS011;501;48.214;11.350;2022-09-01T14:57:56;2.40;;;2.20;;
1024;SDS011;501;48.214;11.350;2022-09-01T15:00:22;2.00;;;1.90;;
1024;SDS011;501;48.214;11.350;2022-09-01T15:02:51;2.20;;;2.10;;
1024;SDS011;501;48.214;11.350;2022-09-01T15:05:18;2.23;;;2.13;;
1024;SDS011;501;48.214;11.350;2022-09-01T15:07:44;2.73;;;2.00;;
1024;SDS011;501;48.214;11.350;2022-09-01T15:10:11;2.00;;;1.90;;
1024;SDS011;501;48.214;11.350;2022-09-01T15:12:39;2.47;;;2.27;;
1024;SDS011;501;48.214;11.350;2022-09-01T15:15:05;2.10;;;2.00;;
1024;SDS011;501;48.214;11.350;2022-09-01T15:17:32;5.70;;;2.40;;
1024;SDS011;501;48.214;11.350;2022-09-01T15:19:59;2.17;;;2.07;;
1024;SDS011;501;48.214;11.350;2022-09-01T15:22:45;2.20;;;2.00;;
1024;SDS011;501;48.214;11.350;2022-09-01T15:25:13;2.00;;;1.90;;
1024;SDS011;501;48.214;11.350;2022-09-01T15:27:40;2.03;;;1.93;;
1024;SDS011;501;48.214;11.350;2022-09-01T15:30:07;2.10;;;2.00;;
1024;SDS011;501;48.214;11.350;2022-09-01T15:32:38;3.43;;;1.87;;
1024;SDS011;501;48.214;11.350;2022-09-01T15:35:05;2.00;;;1.70;;
1024;SDS011;501;48.214;11.350;2022-09-01T15:37:32;2.53;;;1.43;;
1024;SDS011;501;48.214;11.350;2022-09-01T15:39:58;1.77;;;1.67;;
1024;SDS011;501;48.214;11.350;2022-09-01T15:42:23;2.80;;;1.83;;
1024;SDS011;501;48.214;11.350;2022-09-01T15:44:49;1.60;;;1.50;;
1024;SDS011;501;48.214;11.350;2022-09-01T15:47:15;2.07;;;1.70;;
1024;SDS011;501;48.214;11.350;2022-09-01T15:49:40;2.03;;;1.93;;
1024;SDS011;501;48.214;11.350;2022-09-01T15:52:06;3.90;;;2.00;;
1024;SDS011;501;48.214;11.350;2022-09-01T15:54:31;1.97;;;1.80;;
1024;SDS011;501;48.214;11.350;2022-09-01T15:57:02;2.00;;;1.80;;
1024;SDS011;501;48.214;11.350;2022-09-01T15:59:28;2.17;;;1.70;;
1024;SDS011;501;48.214;11.350;2022-09-01T16:01:54;4.73;;;1.70;;
1024;SDS011;501;48.214;11.350;2022-09-01T16:04:19;3.50;;;1.80;;
1024;SDS011;501;48.214;11.350;2022-09-01T16:06:45;2.17;;;1.97;;
1024;SDS011;501;48.214;11.350;2022-09-01T16:09:12;2.70;;;1.97;;
1024;SDS011;501;48.214;11.350;2022-09-01T16:11:38;1.87;;;1.67;;
1024;SDS011;501;48.214;11.350;2022-09-01T16:14:05;2.43;;;2.23;;
1024;SDS011;501;48.214;11.350;2022-09-01T16:24:23;2.07;;;1.90;;
1024;SDS011;501;48.214;11.350;2022-09-01T16:26:49;2.03;;;1.70;;
1024;SDS011;501;48.214;11.350;2022-09-01T16:32:09;1.97;;;1.77;;
1024;SDS011;501;48.214;11.350;2022-09-01T16:34:35;12.77;;;3.30;;
1024;SDS011;501;48.214;11.350;2022-09-01T16:37:03;4.53;;;1.80;;
1024;SDS011;501;48.214;11.350;2022-09-01T16:39:47;2.03;;;1.93;;
1024;SDS011;501;48.214;11.350;2022-09-01T16:42:31;1.77;;;1.67;;
1024;SDS011;501;48.214;11.350;2022-09-01T16:56:21;1.90;;;1.80;;
1024;SDS011;501;48.214;11.350;2022-09-01T16:59:15;1.80;;;1.70;;